createdAt,value
2023-04-26T00:00:09.525Z,95509.75
2023-04-26T00:02:38.178Z,95513.94
2023-04-26T00:05:09.558Z,95514.50
2023-04-26T00:07:39.329Z,95521.94
2023-04-26T00:10:08.912Z,95491.25
2023-04-26T00:12:38.100Z,95512.50
2023-04-26T00:15:09.668Z,95519.94
2023-04-26T00:17:38.402Z,95521.56
2023-04-26T00:20:10.515Z,95529.00
2023-04-26T00:22:39.036Z,95452.13
2023-04-26T00:25:08.217Z,95483.53
2023-04-26T00:27:36.660Z,95524.78
2023-04-26T00:30:05.614Z,95521.09
2023-04-26T00:32:36.537Z,95530.69
2023-04-26T00:35:05.708Z,95539.28
2023-04-26T00:37:34.236Z,95538.69
2023-04-26T00:40:02.572Z,95536.03
2023-04-26T00:42:31.343Z,95479.56
2023-04-26T00:44:59.695Z,95537.09
2023-04-26T00:47:30.902Z,95541.63
2023-04-26T00:50:01.192Z,95545.56
2023-04-26T00:52:30.170Z,95535.94
2023-04-26T00:54:59.178Z,95540.44
2023-04-26T00:57:27.543Z,95519.41
2023-04-26T00:59:55.926Z,95538.41
2023-04-26T01:02:24.441Z,95502.06
2023-04-26T01:04:52.990Z,95533.63
2023-04-26T01:07:23.076Z,95508.16
2023-04-26T01:09:51.798Z,95530.41
2023-04-26T01:12:20.858Z,95536.53
2023-04-26T01:14:49.386Z,95532.00
2023-04-26T01:17:17.760Z,95534.13
2023-04-26T01:19:49.902Z,95532.72
2023-04-26T01:22:18.272Z,95539.56
2023-04-26T01:24:51.600Z,95534.22
2023-04-26T01:27:20.004Z,95537.63
2023-04-26T01:29:48.319Z,95484.25
2023-04-26T01:32:16.636Z,95444.56
2023-04-26T01:34:44.969Z,95516.81
2023-04-26T01:37:13.369Z,95534.63
2023-04-26T01:39:41.707Z,95536.72
2023-04-26T01:42:11.887Z,95531.03
2023-04-26T01:44:40.858Z,95547.50
2023-04-26T01:47:09.239Z,95539.63
2023-04-26T01:49:37.741Z,95517.97
2023-04-26T01:52:06.490Z,95535.09
2023-04-26T01:54:34.855Z,95530.91
2023-04-26T01:57:03.958Z,95535.94
2023-04-26T01:59:33.720Z,95543.22
2023-04-26T02:02:02.182Z,95532.56
2023-04-26T02:04:30.709Z,95540.19
2023-04-26T02:06:59.212Z,95530.81
2023-04-26T02:09:27.487Z,95528.84
2023-04-26T02:11:55.817Z,95529.31
2023-04-26T02:14:24.175Z,95526.06
2023-04-26T02:16:53.953Z,95520.41
2023-04-26T02:19:22.294Z,95531.53
2023-04-26T02:21:55.836Z,95537.88
2023-04-26T02:24:24.355Z,95532.66
2023-04-26T02:26:53.197Z,95503.13
2023-04-26T02:29:29.746Z,95524.44
2023-04-26T02:32:12.077Z,95529.88
2023-04-26T02:34:40.825Z,95525.22
2023-04-26T02:37:09.416Z,95525.09
2023-04-26T02:39:37.832Z,95525.09
2023-04-26T02:42:10.798Z,95525.53
2023-04-26T02:44:39.910Z,95522.31
2023-04-26T02:47:09.942Z,95501.56
2023-04-26T02:49:40.122Z,95520.09
2023-04-26T02:52:08.400Z,95448.91
2023-04-26T02:54:36.719Z,95523.41
2023-04-26T02:57:06.306Z,95522.38
2023-04-26T02:59:34.708Z,95526.31
2023-04-26T03:02:03.092Z,95523.84
2023-04-26T03:04:36.614Z,95524.47
2023-04-26T03:07:06.576Z,95438.81
2023-04-26T03:09:35.010Z,95527.22
2023-04-26T03:12:03.485Z,95524.72
2023-04-26T03:14:31.797Z,95502.41
2023-04-26T03:17:00.181Z,95520.69
2023-04-26T03:19:28.783Z,95523.59
2023-04-26T03:21:57.607Z,95525.66
2023-04-26T03:24:27.672Z,95483.13
2023-04-26T03:26:55.958Z,95513.72
2023-04-26T03:29:24.292Z,95434.09
2023-04-26T03:31:52.632Z,95520.88
2023-04-26T03:34:21.078Z,95519.03
2023-04-26T03:36:49.425Z,95528.03
2023-04-26T03:39:17.982Z,95525.84
2023-04-26T03:41:47.849Z,95523.88
2023-04-26T03:44:16.787Z,95528.00
2023-04-26T03:46:45.183Z,95448.47
2023-04-26T03:49:13.521Z,95507.00
2023-04-26T03:51:42.081Z,95551.56
2023-04-26T03:54:11.221Z,95541.16
2023-04-26T03:56:40.206Z,95556.28
2023-04-26T03:59:10.491Z,95547.25
2023-04-26T04:01:38.854Z,95547.75
2023-04-26T04:04:07.272Z,95553.25
2023-04-26T04:06:35.932Z,95533.56
2023-04-26T04:09:05.609Z,95553.50
2023-04-26T04:11:35.037Z,95551.63
2023-04-26T04:14:03.339Z,95554.53
2023-04-26T04:16:33.120Z,95547.88
2023-04-26T04:19:01.370Z,95565.91
2023-04-26T04:21:29.650Z,95551.28
2023-04-26T04:23:57.978Z,95561.31
2023-04-26T04:26:26.499Z,95553.56
2023-04-26T04:28:55.345Z,95554.41
2023-04-26T04:31:24.291Z,95546.13
2023-04-26T04:33:54.081Z,95555.41
2023-04-26T04:36:23.054Z,95573.00
2023-04-26T04:38:51.800Z,95570.91
2023-04-26T04:41:20.695Z,95571.50
2023-04-26T04:43:49.059Z,95577.44
2023-04-26T04:46:17.424Z,95576.38
2023-04-26T04:48:45.774Z,95567.94
2023-04-26T04:51:15.559Z,95552.19
2023-04-26T04:53:43.834Z,95580.34
2023-04-26T04:56:12.159Z,95578.88
2023-04-26T04:58:40.446Z,95532.53
2023-04-26T05:01:08.870Z,95563.38
2023-04-26T05:03:37.470Z,95549.06
2023-04-26T05:06:07.009Z,95581.09
2023-04-26T05:08:37.285Z,95536.94
2023-04-26T05:11:05.636Z,95583.81
2023-04-26T05:13:33.961Z,95574.09
2023-04-26T05:16:02.561Z,95583.25
2023-04-26T05:18:30.836Z,95580.00
2023-04-26T05:20:59.747Z,95585.13
2023-04-26T05:23:28.231Z,95584.91
2023-04-26T05:25:58.258Z,95588.16
2023-04-26T05:28:27.211Z,95534.13
2023-04-26T05:30:55.798Z,95586.66
2023-04-26T05:33:24.234Z,95582.75
2023-04-26T05:35:54.345Z,95592.41
2023-04-26T05:38:23.270Z,95596.81
2023-04-26T05:40:51.983Z,95544.50
2023-04-26T05:43:21.748Z,95605.41
2023-04-26T05:45:53.656Z,95606.25
2023-04-26T05:48:22.662Z,95610.91
2023-04-26T05:50:51.347Z,95609.41
2023-04-26T05:53:20.491Z,95615.91
2023-04-26T05:55:49.208Z,95621.47
2023-04-26T05:58:17.494Z,95591.34
2023-04-26T06:00:47.932Z,95611.16
2023-04-26T06:03:16.651Z,95628.31
2023-04-26T17:19:57.067Z,95645.47
2023-04-26T17:22:25.383Z,95646.78
2023-04-26T17:24:53.707Z,95640.34
2023-04-26T17:27:22.447Z,95642.50
2023-04-26T17:29:51.058Z,95613.69
2023-04-26T17:32:19.501Z,95653.75
2023-04-26T17:34:48.342Z,95634.88
2023-04-26T17:37:18.715Z,95649.63
2023-04-26T17:39:47.096Z,95652.06
2023-04-26T17:42:17.664Z,95647.72
2023-04-26T17:44:47.354Z,95650.31
2023-04-26T17:47:17.008Z,95658.88
2023-04-26T17:49:46.588Z,95664.22
2023-04-26T17:52:15.003Z,95663.66
2023-04-26T17:54:44.742Z,95667.09
2023-04-26T17:57:13.094Z,95660.06
2023-04-26T17:59:41.710Z,95656.19
2023-04-26T18:02:10.004Z,95676.91
2023-04-26T18:04:38.679Z,95656.53
2023-04-26T18:07:07.831Z,95678.56
2023-04-26T18:09:36.971Z,95676.63
2023-04-26T18:12:07.015Z,95674.72
2023-04-26T18:14:35.418Z,95678.13
2023-04-26T18:17:05.371Z,95686.94
2023-04-26T18:19:33.671Z,95685.50
2023-04-26T18:22:02.060Z,95686.69
2023-04-26T18:24:31.126Z,95692.97
2023-04-26T18:27:01.468Z,95694.69
2023-04-26T18:29:32.768Z,95675.13
2023-04-26T18:32:02.153Z,95697.97
2023-04-26T18:34:30.517Z,95707.78
2023-04-26T18:36:59.011Z,95686.66
